createdAt,value
2019-02-28T00:02:22.425Z,63.13
2019-02-28T00:07:24.290Z,60.83
2019-02-28T00:12:27.294Z,59.32
2019-02-28T00:17:30.333Z,60.85
2019-02-28T00:22:33.267Z,61.80
2019-02-28T00:27:36.366Z,59.61
2019-02-28T00:32:39.458Z,60.08
2019-02-28T00:37:42.612Z,59.07
2019-02-28T00:42:48.068Z,58.01
2019-02-28T00:47:50.681Z,58.38
2019-02-28T00:52:53.764Z,60.38
2019-02-28T00:57:57.227Z,61.15
2019-02-28T01:03:00.329Z,61.51
2019-02-28T01:08:03.257Z,62.11
2019-02-28T01:13:06.212Z,62.14
2019-02-28T01:18:09.135Z,62.17
2019-02-28T01:23:12.056Z,62.20
2019-02-28T01:28:15.556Z,63.82
2019-02-28T01:33:24.587Z,65.63
2019-02-28T01:38:24.213Z,66.07
2019-02-28T01:43:28.810Z,66.07
2019-02-28T01:48:32.556Z,65.53
2019-02-28T01:53:35.591Z,64.15
2019-02-28T01:58:38.577Z,63.41
2019-02-28T02:03:41.810Z,62.13
2019-02-28T02:08:44.964Z,62.31
2019-02-28T02:13:47.917Z,63.83
2019-02-28T02:18:50.861Z,62.31
2019-02-28T02:23:53.953Z,62.09
2019-02-28T02:29:01.178Z,60.82
2019-02-28T02:34:04.175Z,60.28
2019-02-28T02:39:07.932Z,59.54
2019-02-28T02:44:10.891Z,59.70
2019-02-28T02:49:18.381Z,59.59
2019-02-28T02:54:20.282Z,59.68
2019-02-28T02:59:23.320Z,60.12
2019-02-28T03:04:26.292Z,60.35
2019-02-28T03:09:29.268Z,60.21
2019-02-28T03:14:32.315Z,60.15
2019-02-28T03:19:35.379Z,60.76
2019-02-28T03:24:38.383Z,60.43
2019-02-28T03:29:43.922Z,60.47
2019-02-28T03:34:54.750Z,61.41
2019-02-28T03:39:51.150Z,61.88
2019-02-28T03:44:56.952Z,61.72
2019-02-28T03:49:59.027Z,61.83
2019-02-28T03:55:04.465Z,63.15
2019-02-28T04:00:12.503Z,62.41
2019-02-28T04:05:15.607Z,60.72
2019-02-28T04:10:21.754Z,61.21
2019-02-28T04:15:23.869Z,61.29
2019-02-28T04:20:26.835Z,62.33
2019-02-28T04:25:29.909Z,62.45
2019-02-28T04:30:34.253Z,63.55
2019-02-28T04:35:37.271Z,64.15
2019-02-28T04:40:40.303Z,64.79
2019-02-28T04:45:43.394Z,64.97
2019-02-28T04:50:46.399Z,65.53
2019-02-28T04:55:49.463Z,65.61
2019-02-28T05:00:52.458Z,66.78
2019-02-28T05:05:55.454Z,66.91
2019-02-28T05:10:58.511Z,67.26
2019-02-28T05:16:01.584Z,67.40
2019-02-28T05:21:04.531Z,67.77
2019-02-28T05:26:07.514Z,68.89
2019-02-28T05:31:10.462Z,68.41
2019-02-28T05:36:13.482Z,68.21
2019-02-28T05:41:16.564Z,68.70
2019-02-28T05:46:20.385Z,68.29
2019-02-28T05:51:25.715Z,68.35
2019-02-28T05:56:32.799Z,68.65
2019-02-28T06:01:33.827Z,67.93
2019-02-28T06:06:36.945Z,68.41
2019-02-28T06:11:39.906Z,67.67
2019-02-28T06:16:46.281Z,64.62
2019-02-28T06:21:47.857Z,61.99
2019-02-28T06:26:50.862Z,59.84
2019-02-28T06:31:53.886Z,57.56
2019-02-28T06:36:56.848Z,57.64
2019-02-28T06:41:59.793Z,57.07
2019-02-28T06:47:02.892Z,55.12
2019-02-28T06:52:05.885Z,55.51
2019-02-28T06:57:08.938Z,54.43
2019-02-28T07:02:11.996Z,54.27
2019-02-28T07:07:15.122Z,53.77
2019-02-28T07:12:18.122Z,53.50
2019-02-28T07:17:21.473Z,52.58
2019-02-28T07:22:24.472Z,52.68
2019-02-28T07:27:29.731Z,52.64
2019-02-28T07:32:34.281Z,51.21
2019-02-28T07:37:37.575Z,51.23
2019-02-28T07:42:40.597Z,50.95
2019-02-28T07:47:43.674Z,50.84
2019-02-28T07:52:47.214Z,50.88
2019-02-28T07:57:53.268Z,51.00
2019-02-28T08:02:55.275Z,49.93
2019-02-28T08:07:58.358Z,49.99
2019-02-28T08:13:03.141Z,49.47
2019-02-28T08:18:06.406Z,49.21
2019-02-28T08:23:09.364Z,49.69
2019-02-28T08:28:12.349Z,48.36
2019-02-28T08:33:16.286Z,48.02
2019-02-28T08:38:20.392Z,47.18
2019-02-28T08:43:27.003Z,46.19
2019-02-28T08:48:31.234Z,46.51
2019-02-28T08:53:33.662Z,44.79
2019-02-28T08:58:37.649Z,43.94
2019-02-28T09:03:41.489Z,43.43
2019-02-28T09:08:44.546Z,43.63
2019-02-28T09:13:47.609Z,42.66
2019-02-28T09:18:50.713Z,42.34
2019-02-28T09:23:53.717Z,41.06
2019-02-28T09:28:56.785Z,41.73
2019-02-28T09:33:59.921Z,41.62
2019-02-28T09:39:04.482Z,40.97
2019-02-28T09:44:07.627Z,40.86
2019-02-28T09:49:12.903Z,40.33
2019-02-28T09:54:15.722Z,40.86
2019-02-28T09:59:18.817Z,40.89
2019-02-28T10:04:21.825Z,41.45
2019-02-28T10:09:24.797Z,40.78
2019-02-28T10:14:28.813Z,40.62
2019-02-28T10:19:32.703Z,40.66
2019-02-28T10:24:35.886Z,40.74
2019-02-28T10:29:41.910Z,40.96
2019-02-28T10:34:43.887Z,42.03
2019-02-28T10:39:46.987Z,41.51
2019-02-28T10:44:50.040Z,41.52
2019-02-28T10:49:55.409Z,41.43
2019-02-28T10:54:58.407Z,41.31
2019-02-28T11:00:01.483Z,41.17
2019-02-28T11:05:04.921Z,41.80
2019-02-28T11:10:08.130Z,40.21
2019-02-28T11:15:13.901Z,39.15
2019-02-28T11:20:22.137Z,40.16
2019-02-28T11:25:24.894Z,38.70
2019-02-28T11:30:28.814Z,38.35
2019-02-28T11:35:32.452Z,38.70
2019-02-28T11:40:36.408Z,38.17
2019-02-28T11:45:40.806Z,36.96
2019-02-28T11:50:44.995Z,36.64
2019-02-28T11:55:48.189Z,36.77
2019-02-28T12:00:51.493Z,36.69
2019-02-28T12:05:54.549Z,35.07
2019-02-28T12:10:58.340Z,34.85
2019-02-28T12:16:02.408Z,34.74
2019-02-28T12:21:05.446Z,34.21
2019-02-28T12:26:08.416Z,34.46
2019-02-28T12:31:11.920Z,34.70
2019-02-28T12:36:15.332Z,33.77
2019-02-28T12:41:21.587Z,34.02
2019-02-28T12:46:23.743Z,33.77
2019-02-28T12:51:26.867Z,34.57
2019-02-28T12:56:29.943Z,33.99
2019-02-28T13:01:33.330Z,34.84
2019-02-28T13:06:37.325Z,34.25
2019-02-28T13:11:40.284Z,33.82
2019-02-28T13:16:43.519Z,33.76
2019-02-28T13:21:47.886Z,33.88
2019-02-28T13:26:51.102Z,34.08
2019-02-28T13:31:54.120Z,34.47
2019-02-28T13:37:01.744Z,34.17
2019-02-28T13:42:02.991Z,34.36
2019-02-28T13:47:09.837Z,34.59
2019-02-28T13:52:18.839Z,34.97
2019-02-28T13:57:17.269Z,35.15
2019-02-28T14:02:20.284Z,34.49
2019-02-28T14:07:23.257Z,34.68
2019-02-28T14:12:28.721Z,34.42
2019-02-28T14:17:32.514Z,34.44
2019-02-28T14:22:36.254Z,34.25
2019-02-28T14:27:39.286Z,34.42
2019-02-28T14:32:44.100Z,34.66
2019-02-28T14:37:47.332Z,34.94
2019-02-28T14:42:50.574Z,34.61
2019-02-28T14:47:57.152Z,35.10
2019-02-28T14:52:59.556Z,35.23
2019-02-28T14:58:02.605Z,35.66
2019-02-28T15:03:05.818Z,35.62
2019-02-28T15:08:11.978Z,35.16
2019-02-28T15:13:14.357Z,35.16
2019-02-28T15:18:21.747Z,35.46
2019-02-28T15:23:24.788Z,35.53
2019-02-28T15:28:27.897Z,35.73
2019-02-28T15:33:31.257Z,36.23
2019-02-28T15:38:34.385Z,36.52
2019-02-28T15:43:37.412Z,36.98
2019-02-28T15:48:40.395Z,36.83
2019-02-28T15:53:43.605Z,37.60
2019-02-28T15:58:46.783Z,38.37
2019-02-28T16:03:51.274Z,38.49
2019-02-28T16:08:55.109Z,38.51
2019-02-28T16:14:00.503Z,39.10
2019-02-28T16:19:03.063Z,39.84
2019-02-28T16:24:06.009Z,40.47
2019-02-28T16:29:09.065Z,40.59
2019-02-28T16:34:12.094Z,40.60
2019-02-28T16:39:16.887Z,41.18
2019-02-28T16:44:20.109Z,42.17
2019-02-28T16:49:23.159Z,42.31
2019-02-28T16:54:27.814Z,42.42
2019-02-28T16:59:31.717Z,42.81
2019-02-28T17:04:35.518Z,43.24
2019-02-28T17:09:41.671Z,43.23
2019-02-28T17:14:47.928Z,43.73
2019-02-28T17:19:49.785Z,43.78
2019-02-28T17:24:52.753Z,44.60
2019-02-28T17:30:17.999Z,45.39
2019-02-28T17:35:21.171Z,45.94
2019-02-28T17:40:26.279Z,46.49
2019-02-28T17:45:33.228Z,47.58
2019-02-28T17:51:22.473Z,47.25
2019-02-28T17:57:20.664Z,48.06
2019-02-28T18:02:54.164Z,48.67
2019-02-28T18:08:37.719Z,48.61
2019-02-28T18:14:44.125Z,49.16
2019-02-28T18:21:37.547Z,49.54
2019-02-28T18:27:46.744Z,49.49
2019-02-28T18:32:50.318Z,50.42
2019-02-28T18:37:53.412Z,51.05
2019-02-28T18:42:56.680Z,51.41
2019-02-28T18:47:59.993Z,51.89
2019-02-28T18:53:03.025Z,51.88
2019-02-28T18:58:06.094Z,52.33
2019-02-28T19:03:09.385Z,52.39
2019-02-28T19:08:12.678Z,53.62
2019-02-28T19:13:15.723Z,53.35
2019-02-28T19:18:18.704Z,53.64
2019-02-28T19:23:21.758Z,53.84
2019-02-28T19:28:24.797Z,53.79
2019-02-28T19:33:27.928Z,54.36
2019-02-28T19:38:30.933Z,54.28
2019-02-28T19:43:34.118Z,54.61
2019-02-28T19:48:37.154Z,54.40
2019-02-28T19:53:40.343Z,54.33
2019-02-28T19:58:43.495Z,54.30
2019-02-28T20:03:46.449Z,54.39
2019-02-28T20:08:49.543Z,54.60
2019-02-28T20:13:52.601Z,54.61
2019-02-28T20:18:55.575Z,55.35
2019-02-28T20:23:58.581Z,56.00
2019-02-28T20:29:01.712Z,55.93
2019-02-28T20:34:04.725Z,56.52
2019-02-28T20:39:09.334Z,56.75
2019-02-28T20:44:12.396Z,57.01
2019-02-28T20:49:15.436Z,57.45
2019-02-28T20:54:18.555Z,57.87
2019-02-28T20:59:21.633Z,58.20
2019-02-28T21:04:24.819Z,58.74
2019-02-28T21:09:27.785Z,58.80
2019-02-28T21:14:30.821Z,58.94
2019-02-28T21:19:33.996Z,59.19
2019-02-28T21:24:37.264Z,59.94
2019-02-28T21:29:40.401Z,60.09
2019-02-28T21:34:43.565Z,60.26
2019-02-28T21:39:46.544Z,60.29
2019-02-28T21:44:49.526Z,60.56
2019-02-28T21:49:52.695Z,60.78
2019-02-28T21:54:55.729Z,61.01
2019-02-28T21:59:58.811Z,61.28
2019-02-28T22:05:01.888Z,61.49
2019-02-28T22:10:06.151Z,62.18
2019-02-28T22:15:12.637Z,62.84
2019-02-28T22:20:16.539Z,63.08
2019-02-28T22:25:19.613Z,63.39
2019-02-28T22:31:00.483Z,63.99
2019-02-28T22:36:04.270Z,64.43
2019-02-28T22:41:07.265Z,65.42
2019-02-28T22:46:10.330Z,65.86
2019-02-28T22:51:13.327Z,64.48
2019-02-28T22:56:16.503Z,64.08
2019-02-28T23:01:23.785Z,64.45
2019-02-28T23:06:26.964Z,65.74
2019-02-28T23:11:30.157Z,66.53
2019-02-28T23:16:33.261Z,66.01
2019-02-28T23:21:36.275Z,65.74
2019-02-28T23:27:14.399Z,65.83
2019-02-28T23:32:53.867Z,66.08
2019-02-28T23:37:57.080Z,65.88
2019-02-28T23:43:00.389Z,65.74
2019-02-28T23:48:03.399Z,65.44
2019-02-28T23:53:06.376Z,64.92
2019-02-28T23:58:09.333Z,65.15
